^^
Datos históricos de la estación: Murcia-Puente Tocinos
Diario Informe para Julio 19, 2019 Unidades:  Métrico    Ingés   Ambas
Diario Semanal Mensual Anual
  Máxima: Mínima: Promedio:
Temperatura: 16.6 °C 7.9 °C 11.5 °C
Punto de rocio: 7.3 °C 0.9 °C 3.2 °C
Humedad: 77.6% 36.9% 58%
Velocidad viento: 11.9km/h 0km/h 5.8km/h
Racha viento: 22.5km/h - -
Viento- - SO
Presión: 1017.3 hPa 1013.8 hPa -
Precipitación: 0.0 mm    
 
 
Tabla de datos para Julio 19, 2019
Hora Temperatura Punto de rocio Presión Viento Velocidad viento Racha viento Humedad Intensidad lluvia(por hora) Nubes
00:04 10.3 °C 2.7 °C 1016.1 hPa OSO 7.2 km/h 11.3 km/h 59.4% 0.0 mm
00:09 10.2 °C 2.8 °C 1016.2 hPa OSO 6.5 km/h 10 km/h 60% 0.0 mm
00:14 10.1 °C 2.7 °C 1016.2 hPa OSO 6.5 km/h 9.7 km/h 60% 0.0 mm
00:17 10.1 °C 2.7 °C 1016.2 hPa OSO 6.5 km/h 8 km/h 60.2% 0.0 mm
00:24 10.1 °C 2.7 °C 1016.2 hPa OSO 5 km/h 8.4 km/h 60% 0.0 mm
00:25 10.1 °C 2.7 °C 1016.2 hPa OSO 5.3 km/h 8 km/h 60% 0.0 mm
00:34 10.3 °C 2.6 °C 1016.2 hPa Oeste 5.7 km/h 13.7 km/h 58.9% 0.0 mm
00:39 10.5 °C 2.5 °C 1016.2 hPa Oeste 5.8 km/h 15.6 km/h 57.6% 0.0 mm
00:44 10.8 °C 2.4 °C 1016.2 hPa Oeste 7.3 km/h 16.1 km/h 56.1% 0.0 mm
00:49 11 °C 2.2 °C 1016.2 hPa Oeste 8.4 km/h 13 km/h 54.5% 0.0 mm
00:54 11.2 °C 2.1 °C 1016.2 hPa ONO 7.3 km/h 13 km/h 53.7% 0.0 mm
00:59 11.3 °C 2 °C 1016.1 hPa ONO 6.5 km/h 13 km/h 52.5% 0.0 mm
01:04 11.4 °C 1.9 °C 1016.1 hPa ONO 7.1 km/h 12.9 km/h 52% 0.0 mm
01:09 11.4 °C 1.9 °C 1016.1 hPa ONO 7.6 km/h 13.7 km/h 52% 0.0 mm
01:14 11.4 °C 1.9 °C 1015.8 hPa ONO 7.6 km/h 14.5 km/h 52% 0.0 mm
01:19 11.4 °C 1.9 °C 1015.8 hPa NO 7.6 km/h 8 km/h 52% 0.0 mm
01:24 11.3 °C 1.8 °C 1015.8 hPa Oeste 5.4 km/h 8 km/h 52% 0.0 mm
01:29 11.2 °C 1.9 °C 1015.8 hPa SO 3.9 km/h 11.1 km/h 52.8% 0.0 mm
01:34 11.2 °C 1.9 °C 1015.8 hPa OSO 3.9 km/h 11.3 km/h 53% 0.0 mm
01:39 11.1 °C 1.9 °C 1015.8 hPa OSO 3.9 km/h 11.3 km/h 53% 0.0 mm
01:44 11 °C 1.8 °C 1015.8 hPa Oeste 5 km/h 9.3 km/h 53% 0.0 mm
01:49 10.8 °C 1.9 °C 1015.8 hPa Oeste 5.8 km/h 11.1 km/h 53.9% 0.0 mm
01:54 10.7 °C 1.8 °C 1015.9 hPa Oeste 6.1 km/h 11.9 km/h 54% 0.0 mm
01:59 10.7 °C 1.8 °C 1015.9 hPa Oeste 6.5 km/h 11.3 km/h 54% 0.0 mm
02:04 10.7 °C 1.8 °C 1015.9 hPa Oeste 6.8 km/h 11.3 km/h 54% 0.0 mm
02:09 10.5 °C 1.9 °C 1016.0 hPa Oeste 6.9 km/h 11.1 km/h 55% 0.0 mm
02:14 10.3 °C 1.9 °C 1016.0 hPa ONO 6.7 km/h 11.3 km/h 55.8% 0.0 mm
02:19 10.2 °C 1.8 °C 1016.0 hPa NO 6.5 km/h 11.9 km/h 56.1% 0.0 mm
02:24 10 °C 1.8 °C 1016.0 hPa NO 7.1 km/h 14.8 km/h 57% 0.0 mm
02:29 9.8 °C 1.8 °C 1015.8 hPa ONO 7.6 km/h 14.8 km/h 57.8% 0.0 mm
02:34 9.6 °C 1.8 °C 1015.8 hPa OSO 7.6 km/h 12.9 km/h 58.4% 0.0 mm
02:39 9.5 °C 1.9 °C 1015.8 hPa Sur 7.6 km/h 13.7 km/h 59.2% 0.0 mm
02:44 9.3 °C 2.2 °C 1015.8 hPa SSE 6.9 km/h 14.5 km/h 61.1% 0.0 mm
02:49 9.2 °C 2.2 °C 1015.8 hPa Sur 6.5 km/h 11.3 km/h 61.7% 0.0 mm
02:54 9.3 °C 2.1 °C 1015.9 hPa Sur 6.7 km/h 14.8 km/h 61.1% 0.0 mm
02:59 9.4 °C 2.1 °C 1015.9 hPa Sur 6.9 km/h 14.8 km/h 60.3% 0.0 mm
03:04 9.6 °C 2 °C 1015.9 hPa SSO 8.5 km/h 15.6 km/h 59.1% 0.0 mm
03:09 10.1 °C 1.7 °C 1015.9 hPa SO 9.5 km/h 18.5 km/h 55.9% 0.0 mm
03:14 10.5 °C 1.7 °C 1015.9 hPa Oeste 8.4 km/h 19.3 km/h 54.3% 0.0 mm
03:19 10.7 °C 1.6 °C 1015.9 hPa OSO 7.6 km/h 11.1 km/h 53.6% 0.0 mm
03:24 10.8 °C 1.5 °C 1015.9 hPa SSO 6.6 km/h 11.3 km/h 52.6% 0.0 mm
03:29 10.9 °C 1.4 °C 1015.7 hPa SSO 5.8 km/h 11.1 km/h 52% 0.0 mm
03:34 10.9 °C 1.5 °C 1015.7 hPa SSE 6.1 km/h 11.3 km/h 52.5% 0.0 mm
03:39 10.8 °C 1.6 °C 1015.8 hPa SSE 6.5 km/h 9.7 km/h 53.2% 0.0 mm
03:44 10.6 °C 1.7 °C 1015.8 hPa SE 4.7 km/h 5.6 km/h 54.1% 0.0 mm
03:49 10.3 °C 1.7 °C 1015.8 hPa ESE 3.2 km/h 4.8 km/h 55% 0.0 mm
03:54 10.2 °C 1.7 °C 1015.8 hPa SSE 2.7 km/h 7.4 km/h 55.9% 0.0 mm
03:59 9.9 °C 1.5 °C 1015.7 hPa SSE 2.2 km/h 8 km/h 56% 0.0 mm
04:04 9.8 °C 1.7 °C 1015.7 hPa ONO 2.7 km/h 9.3 km/h 56.8% 0.0 mm
04:09 9.6 °C 1.6 °C 1015.7 hPa ONO 2.9 km/h 9.7 km/h 57.7% 0.0 mm
04:14 9.4 °C 1.7 °C 1015.5 hPa OSO 3.9 km/h 10 km/h 58.6% 0.0 mm
04:19 9.2 °C 1.7 °C 1015.5 hPa SO 4.6 km/h 9.7 km/h 59.7% 0.0 mm
04:24 9.1 °C 1.9 °C 1015.5 hPa SO 5.3 km/h 9.7 km/h 60.7% 0.0 mm
04:29 9 °C 1.8 °C 1015.5 hPa SSO 5.8 km/h 9.7 km/h 61% 0.0 mm
04:34 9 °C 1.9 °C 1015.5 hPa Oeste 5.3 km/h 11.1 km/h 61% 0.0 mm
04:39 8.9 °C 1.8 °C 1015.7 hPa OSO 5 km/h 11.3 km/h 61% 0.0 mm
04:44 8.8 °C 1.7 °C 1015.7 hPa SO 6.4 km/h 13.7 km/h 61% 0.0 mm
04:49 9.1 °C 1.6 °C 1015.7 hPa SSO 7.6 km/h 18.5 km/h 59.7% 0.0 mm
04:54 9.4 °C 1.5 °C 1015.7 hPa SSO 9.1 km/h 20.4 km/h 58.1% 0.0 mm
04:59 9.4 °C 1.5 °C 1015.7 hPa SO 10.3 km/h 20.9 km/h 57.8% 0.0 mm
05:04 9.5 °C 1.4 °C 1015.7 hPa SO 10.9 km/h 19.3 km/h 57% 0.0 mm
05:09 9.6 °C 1.5 °C 1015.8 hPa SO 11.1 km/h 17.7 km/h 57% 0.0 mm
05:14 9.7 °C 1.4 °C 1015.8 hPa OSO 10.2 km/h 16.1 km/h 56.6% 0.0 mm
05:19 9.7 °C 1.3 °C 1015.8 hPa SO 9.5 km/h 14.5 km/h 56% 0.0 mm
05:24 9.7 °C 1.3 °C 1015.8 hPa SO 8.9 km/h 17.2 km/h 56% 0.0 mm
05:29 9.8 °C 1.4 °C 1015.8 hPa SO 8.4 km/h 18.3 km/h 55.8% 0.0 mm
05:34 9.9 °C 1.3 °C 1015.8 hPa OSO 9.4 km/h 22.2 km/h 55% 0.0 mm
05:39 10 °C 1.4 °C 1015.9 hPa OSO 10.3 km/h 22.5 km/h 55% 0.0 mm
05:44 10 °C 1.3 °C 1015.9 hPa OSO 9.9 km/h 19.3 km/h 55% 0.0 mm
05:49 9.8 °C 1.3 °C 1015.9 hPa OSO 9.5 km/h 14.8 km/h 55.5% 0.0 mm
05:54 9.7 °C 1.3 °C 1016.0 hPa OSO 8.8 km/h 14.5 km/h 56% 0.0 mm
05:59 9.7 °C 1.2 °C 1016.0 hPa SO 8.4 km/h 20.9 km/h 55.6% 0.0 mm
06:04 9.8 °C 1.2 °C 1016.0 hPa OSO 8.6 km/h 20.9 km/h 55% 0.0 mm
06:09 9.8 °C 1.2 °C 1016.0 hPa OSO 8.7 km/h 14.5 km/h 55% 0.0 mm
06:14 9.9 °C 1.1 °C 1016.0 hPa SO 8.7 km/h 14.8 km/h 54.1% 0.0 mm
06:19 10.1 °C 1.2 °C 1016.0 hPa OSO 8.7 km/h 14.8 km/h 54% 0.0 mm
06:24 10.1 °C 1.2 °C 1016.2 hPa OSO 9.2 km/h 14.5 km/h 54% 0.0 mm
06:29 10 °C 1.2 °C 1016.2 hPa OSO 9.5 km/h 14.5 km/h 54% 0.0 mm
06:34 9.9 °C 1.1 °C 1016.2 hPa SSO 9.5 km/h 22.2 km/h 54.3% 0.0 mm
06:39 9.6 °C 1.1 °C 1016.2 hPa SO 9.5 km/h 22.5 km/h 55.6% 0.0 mm
06:44 9.3 °C 1.2 °C 1016.2 hPa SO 10.9 km/h 19.3 km/h 56.7% 0.0 mm
06:49 9.2 °C 1.1 °C 1016.2 hPa OSO 11.9 km/h 16.7 km/h 57% 0.0 mm
06:54 9.2 °C 1.1 °C 1016.2 hPa OSO 11.9 km/h 18.5 km/h 57% 0.0 mm
06:59 9.2 °C 1.2 °C 1016.2 hPa OSO 11.9 km/h 19.3 km/h 57.3% 0.0 mm
07:04 9 °C 1.1 °C 1016.2 hPa OSO 11.9 km/h 19.8 km/h 58% 0.0 mm
07:09 8.8 °C 1.1 °C 1016.2 hPa OSO 11.9 km/h 20.9 km/h 58.4% 0.0 mm
07:14 8.8 °C 1.1 °C 1016.1 hPa OSO 11.9 km/h 20.9 km/h 58.5% 0.0 mm
07:19 8.8 °C 1.2 °C 1016.1 hPa Oeste 11.9 km/h 20.9 km/h 58.5% 0.0 mm
07:24 8.8 °C 1.2 °C 1016.1 hPa ONO 8.9 km/h 12.9 km/h 59% 0.0 mm
07:29 8.7 °C 1.1 °C 1016.1 hPa OSO 6.9 km/h 10 km/h 59.1% 0.0 mm
07:34 8.5 °C 1.2 °C 1016.1 hPa SE 5 km/h 10 km/h 60.4% 0.0 mm
07:39 8.1 °C 1.3 °C 1016.4 hPa SSE 3.9 km/h 11.1 km/h 62% 0.0 mm
07:44 7.9 °C 1.3 °C 1016.4 hPa SSO 5.3 km/h 11.3 km/h 62.8% 0.0 mm
07:49 8.2 °C 1.2 °C 1016.4 hPa SO 6.5 km/h 13.7 km/h 61.7% 0.0 mm
07:54 8.4 °C 1.1 °C 1016.4 hPa OSO 7.8 km/h 16.7 km/h 60% 0.0 mm
07:59 8.6 °C 1 °C 1016.4 hPa OSO 8.7 km/h 16.1 km/h 58.9% 0.0 mm
08:04 8.7 °C 1.1 °C 1016.4 hPa OSO 9.2 km/h 14.8 km/h 59% 0.0 mm
08:09 8.5 °C 1 °C 1016.5 hPa Oeste 9.5 km/h 16.7 km/h 59% 0.0 mm
08:14 8.4 °C 0.9 °C 1016.5 hPa Oeste 10 km/h 16.7 km/h 59.1% 0.0 mm
08:19 8.3 °C 0.9 °C 1016.5 hPa Oeste 10.3 km/h 17.2 km/h 59.6% 0.0 mm
08:24 8.5 °C 0.9 °C 1016.6 hPa Oeste 10.3 km/h 17.7 km/h 59% 0.0 mm
08:29 8.6 °C 1.1 °C 1016.6 hPa Oeste 10.3 km/h 16.1 km/h 59% 0.0 mm
08:34 8.7 °C 1.2 °C 1016.6 hPa Oeste 8.5 km/h 11.3 km/h 59% 0.0 mm
08:39 8.9 °C 1.3 °C 1016.9 hPa Sur 6.9 km/h 8.4 km/h 58.8% 0.0 mm
08:44 9 °C 1.3 °C 1016.9 hPa SSE 4.7 km/h 11.9 km/h 58.2% 0.0 mm
08:49 8.7 °C 1.2 °C 1016.9 hPa SSE 3.2 km/h 13 km/h 59% 0.0 mm
08:54 8.7 °C 1.1 °C 1017.1 hPa SSE 6.4 km/h 13 km/h 59% 0.0 mm
08:59 8.8 °C 1.2 °C 1017.1 hPa SSO 8.7 km/h 12.9 km/h 59% 0.0 mm
09:04 9 °C 1.3 °C 1017.1 hPa OSO 7.3 km/h 10 km/h 58.3% 0.0 mm
09:09 9.2 °C 1.3 °C 1017.2 hPa SO 6.5 km/h 13.7 km/h 58% 0.0 mm
09:14 9.4 °C 1.5 °C 1017.2 hPa SO 7.1 km/h 14.8 km/h 58% 0.0 mm
09:19 9.5 °C 1.5 °C 1017.2 hPa SSO 7.6 km/h 15.6 km/h 57.4% 0.0 mm
09:24 9.6 °C 1.5 °C 1017.3 hPa SO 8.7 km/h 16.1 km/h 57% 0.0 mm
09:29 9.8 °C 1.4 °C 1017.3 hPa OSO 9.5 km/h 14.8 km/h 56.1% 0.0 mm
09:34 9.9 °C 1.3 °C 1017.3 hPa OSO 9 km/h 16.7 km/h 55.1% 0.0 mm
09:35 10 °C 1.4 °C 1017.3 hPa OSO 8.8 km/h 16.7 km/h 55% 0.0 mm
10:01 10.6 °C 1.2 °C 1017.3 hPa SO 11.9 km/h 22.2 km/h 52% 0.0 mm
15:24 15.9 °C 1.5 °C 1014.2 hPa Oeste 10 km/h 22.2 km/h 37.6% 0.0 mm
15:27 15.9 °C 1.6 °C 1014.2 hPa NO 10 km/h 22.5 km/h 38.1% 0.0 mm
15:34 16 °C 1.3 °C 1014.2 hPa Oeste 8.7 km/h 14 km/h 37% 0.0 mm
15:39 16.1 °C 1.5 °C 1014.2 hPa OSO 8.7 km/h 14.8 km/h 37.3% 0.0 mm
15:44 16.1 °C 1.4 °C 1014.1 hPa SSO 8.5 km/h 14.5 km/h 37% 0.0 mm
15:49 16.2 °C 1.5 °C 1014.1 hPa NO 8.4 km/h 9.7 km/h 37% 0.0 mm
15:54 16.3 °C 1.6 °C 1014.1 hPa OSO 5.7 km/h 11.1 km/h 37% 0.0 mm
15:59 16.4 °C 1.7 °C 1014.0 hPa Oeste 3.9 km/h 11.3 km/h 37% 0.0 mm
16:04 16.4 °C 1.7 °C 1014.0 hPa OSO 4.5 km/h 9.7 km/h 37% 0.0 mm
16:09 16.5 °C 1.7 °C 1014.0 hPa ONO 5 km/h 8 km/h 36.9% 0.0 mm
16:14 16.6 °C 1.8 °C 1014.0 hPa ONO 4.3 km/h 11.1 km/h 37% 0.0 mm
16:19 16.5 °C 1.7 °C 1014.0 hPa Oeste 3.9 km/h 13 km/h 37% 0.0 mm
16:24 16.4 °C 1.8 °C 1014.1 hPa OSO 4.3 km/h 12.9 km/h 37.4% 0.0 mm
16:29 16.3 °C 1.8 °C 1014.1 hPa OSO 4.6 km/h 9.5 km/h 37.5% 0.0 mm
16:34 16.3 °C 1.9 °C 1014.1 hPa Oeste 4.2 km/h 9.7 km/h 37.8% 0.0 mm
16:39 16.3 °C 1.9 °C 1014.1 hPa NO 3.9 km/h 6.4 km/h 38% 0.0 mm
16:44 16.3 °C 1.9 °C 1014.0 hPa NO 2.9 km/h 5.6 km/h 37.9% 0.0 mm
16:49 16.3 °C 1.7 °C 1014.0 hPa NO 2.2 km/h 4.8 km/h 37.4% 0.0 mm
16:54 16.3 °C 1.6 °C 1014.0 hPa NO 2.2 km/h 4.8 km/h 37% 0.0 mm
16:59 16.3 °C 1.6 °C 1013.8 hPa NO 2.2 km/h 5.6 km/h 37.2% 0.0 mm
17:04 16.2 °C 1.8 °C 1013.8 hPa NO 2.2 km/h 5.6 km/h 38% 0.0 mm
17:09 16.1 °C 1.8 °C 1013.8 hPa NO 2.2 km/h 3.7 km/h 38.1% 0.0 mm
17:14 16 °C 2 °C 1013.8 hPa NO 0.9 km/h 3.2 km/h 39% 0.0 mm
17:19 15.9 °C 1.8 °C 1013.8 hPa Calm   2.9 km/h 38.7% 0.0 mm
17:24 15.8 °C 1.5 °C 1013.8 hPa Calm   5.6 km/h 38% 0.0 mm
17:29 15.8 °C 1.7 °C 1013.8 hPa Calm   5.8 km/h 38.5% 0.0 mm
17:34 15.7 °C 2.4 °C 1013.8 hPa ESE 1.6 km/h 10 km/h 41% 0.0 mm
17:39 15.4 °C 3 °C 1013.9 hPa ESE 2.9 km/h 10.3 km/h 43.4% 0.0 mm
17:44 15 °C 3.3 °C 1013.9 hPa ESE 5 km/h 11.3 km/h 45.4% 0.0 mm
17:49 14.7 °C 3.4 °C 1013.9 hPa ESE 6.5 km/h 11.3 km/h 46.8% 0.0 mm
17:54 14.3 °C 3.4 °C 1014.0 hPa ESE 6.5 km/h 11.3 km/h 47.6% 0.0 mm
17:59 14.2 °C 3.4 °C 1014.0 hPa ESE 6.5 km/h 12.2 km/h 48.4% 0.0 mm
18:04 14 °C 3.8 °C 1014.0 hPa SE 6.5 km/h 13 km/h 50.3% 0.0 mm
18:09 14 °C 4.1 °C 1014.1 hPa ESE 6.5 km/h 12.9 km/h 51.2% 0.0 mm
18:14 14 °C 4.3 °C 1014.1 hPa SE 5 km/h 9.7 km/h 52% 0.0 mm
18:19 14 °C 4.5 °C 1014.1 hPa SSE 3.9 km/h 8 km/h 52.9% 0.0 mm
18:24 13.9 °C 4.5 °C 1014.2 hPa SSE 3.9 km/h 8 km/h 53.1% 0.0 mm
18:29 13.9 °C 5 °C 1014.2 hPa SSE 3.9 km/h 8.7 km/h 54.9% 0.0 mm
18:34 13.9 °C 5.6 °C 1014.2 hPa Sur 4.3 km/h 13 km/h 57.4% 0.0 mm
18:39 13.9 °C 6 °C 1014.2 hPa Sur 4.6 km/h 13 km/h 58.8% 0.0 mm
18:44 13.9 °C 6.4 °C 1014.2 hPa Sur 5.9 km/h 14.8 km/h 60.5% 0.0 mm
18:49 13.9 °C 6.7 °C 1014.2 hPa Sur 6.9 km/h 14.5 km/h 61.7% 0.0 mm
18:54 14 °C 6.9 °C 1014.4 hPa Sur 8 km/h 13 km/h 62.4% 0.0 mm
18:59 13.9 °C 7 °C 1014.4 hPa SSE 8.7 km/h 13 km/h 63% 0.0 mm
19:04 13.9 °C 6.9 °C 1014.4 hPa SSE 8.7 km/h 12.9 km/h 63% 0.0 mm
19:09 13.9 °C 7.2 °C 1014.4 hPa SSE 8.7 km/h 11.9 km/h 63.9% 0.0 mm
19:14 13.9 °C 7.2 °C 1014.4 hPa SE 7.5 km/h 11.3 km/h 64% 0.0 mm
19:19 13.8 °C 7.2 °C 1014.4 hPa ESE 6.5 km/h 9.3 km/h 64.2% 0.0 mm
19:24 13.6 °C 7.2 °C 1014.5 hPa SE 5.4 km/h 9.7 km/h 65% 0.0 mm
19:29 13.5 °C 7.2 °C 1014.5 hPa SE 4.6 km/h 8 km/h 66% 0.0 mm
19:34 13.4 °C 7.2 °C 1014.5 hPa SE 3.2 km/h 3.7 km/h 66% 0.0 mm
19:39 13.4 °C 7.2 °C 1014.5 hPa SE 2.2 km/h 3.2 km/h 66% 0.0 mm
19:44 13.3 °C 7.3 °C 1014.5 hPa SSE 1 km/h 7.4 km/h 67% 0.0 mm
19:49 13.3 °C 7.2 °C 1014.5 hPa Calm   11.9 km/h 66.8% 0.0 mm
19:54 13 °C 6.8 °C 1014.7 hPa NO 3.1 km/h 11.9 km/h 66% 0.0 mm
19:59 12.7 °C 6.5 °C 1014.7 hPa NO 5.8 km/h 11.3 km/h 66% 0.0 mm
20:04 12.4 °C 6.2 °C 1014.7 hPa NO 6.2 km/h 9.7 km/h 66% 0.0 mm
20:09 12.3 °C 6.1 °C 1014.7 hPa NO 6.5 km/h 9.7 km/h 65.8% 0.0 mm
20:14 12.3 °C 5.9 °C 1014.7 hPa NO 5.4 km/h 8 km/h 65.1% 0.0 mm
20:19 12.3 °C 5.9 °C 1014.7 hPa NO 4.6 km/h 7.4 km/h 65% 0.0 mm
20:24 12.3 °C 5.9 °C 1014.7 hPa ONO 4.2 km/h 8 km/h 65% 0.0 mm
20:29 12.3 °C 6 °C 1014.7 hPa ONO 3.9 km/h 8 km/h 65% 0.0 mm
20:34 12.3 °C 5.9 °C 1014.7 hPa ONO 3.5 km/h 5.6 km/h 65% 0.0 mm
20:39 12.3 °C 5.8 °C 1014.7 hPa NNE 3.2 km/h 5.8 km/h 64.4% 0.0 mm
20:44 12.3 °C 5.8 °C 1014.7 hPa NNE 2.6 km/h 6.4 km/h 64.8% 0.0 mm
20:49 12.3 °C 6.2 °C 1014.7 hPa Este 2.2 km/h 7.6 km/h 66.4% 0.0 mm
20:54 12.3 °C 6.3 °C 1014.7 hPa Este 2.8 km/h 8 km/h 67% 0.0 mm
20:59 12.3 °C 6.6 °C 1014.7 hPa Este 3.2 km/h 4.8 km/h 68% 0.0 mm
21:04 12.3 °C 6.6 °C 1014.7 hPa ESE 1.1 km/h 3.2 km/h 68% 0.0 mm
21:09 12.3 °C 6.5 °C 1014.7 hPa Calm     68% 0.0 mm
21:14 12.2 °C 6.4 °C 1014.7 hPa Calm     68% 0.0 mm
21:19 12.2 °C 6.6 °C 1014.7 hPa Calm     68.8% 0.0 mm
21:24 12.2 °C 6.5 °C 1014.7 hPa Calm   4.7 km/h 68.2% 0.0 mm
21:29 12.2 °C 6.2 °C 1014.7 hPa Calm   4.8 km/h 67% 0.0 mm
21:34 12.2 °C 6.1 °C 1014.7 hPa Calm   3.2 km/h 66.2% 0.0 mm
21:39 12.2 °C 5.8 °C 1014.8 hPa Calm     65% 0.0 mm
21:44 12.2 °C 5.9 °C 1014.8 hPa Calm   5.6 km/h 65.4% 0.0 mm
21:49 12.1 °C 5.9 °C 1014.8 hPa Calm   4.8 km/h 65.8% 0.0 mm
21:54 12.1 °C 6.1 °C 1014.8 hPa SSO 1.3 km/h 7.4 km/h 66.7% 0.0 mm
21:59 12.1 °C 6.3 °C 1014.8 hPa SSO 2.2 km/h 8 km/h 67.5% 0.0 mm
22:04 12.2 °C 6.4 °C 1014.8 hPa SSO 3.7 km/h 8 km/h 67.6% 0.0 mm
22:09 12.3 °C 6.5 °C 1014.8 hPa SSO 4.6 km/h 9.3 km/h 67.6% 0.0 mm
22:14 12.3 °C 6.3 °C 1014.7 hPa SSO 4.8 km/h 9.7 km/h 67% 0.0 mm
22:19 12.4 °C 6.3 °C 1014.7 hPa SSO 5 km/h 8 km/h 66.7% 0.0 mm
22:24 12.4 °C 6.6 °C 1014.8 hPa SSE 5 km/h 9.5 km/h 67.5% 0.0 mm
22:29 12.3 °C 6.6 °C 1014.8 hPa SE 5 km/h 9.7 km/h 68.5% 0.0 mm
22:34 12 °C 6.7 °C 1014.8 hPa SE 5 km/h 9.3 km/h 70.3% 0.0 mm
22:39 11.7 °C 6.8 °C 1014.8 hPa SE 5 km/h 9.7 km/h 72.1% 0.0 mm
22:44 11.5 °C 6.8 °C 1014.8 hPa SSE 4.4 km/h 8 km/h 72.7% 0.0 mm
22:49 11.3 °C 6.4 °C 1014.8 hPa NO 3.9 km/h 8 km/h 72.1% 0.0 mm
22:54 11.1 °C 6.4 °C 1014.8 hPa NO 2.9 km/h 5 km/h 73% 0.0 mm
22:59 10.9 °C 6.2 °C 1014.7 hPa NO 2.2 km/h 5.6 km/h 73% 0.0 mm
23:04 10.8 °C 6.3 °C 1014.7 hPa NO 2.2 km/h 5.6 km/h 73.8% 0.0 mm
23:09 10.8 °C 6.3 °C 1014.7 hPa NO 2.2 km/h 4.8 km/h 74% 0.0 mm
23:14 10.7 °C 6.4 °C 1014.7 hPa OSO 2.2 km/h 7.6 km/h 74.8% 0.0 mm
23:19 10.7 °C 6.6 °C 1014.7 hPa SO 2.2 km/h 8 km/h 75.9% 0.0 mm
23:24 10.8 °C 6.6 °C 1014.7 hPa SO 3.2 km/h 8 km/h 75.4% 0.0 mm
23:29 10.8 °C 6.6 °C 1014.5 hPa SO 3.9 km/h 3.9 km/h 75% 0.0 mm
23:34 10.8 °C 6.7 °C 1014.5 hPa SO 1.7 km/h 3.7 km/h 75.9% 0.0 mm
23:39 10.7 °C 6.5 °C 1014.5 hPa Calm   3.9 km/h 75.3% 0.0 mm
23:44 10.7 °C 6.7 °C 1014.5 hPa Calm   5.6 km/h 76% 0.0 mm
23:49 10.6 °C 6.6 °C 1014.5 hPa Calm   7.4 km/h 76.1% 0.0 mm
23:54 10.6 °C 6.7 °C 1014.5 hPa SE 2.3 km/h 9.3 km/h 77% 0.0 mm
23:59 10.4 °C 6.7 °C 1014.4 hPa SSE 3.9 km/h 9.7 km/h 77.6% 0.0 mm
Murcia-Puente Tocinos, Espa?a
Compliments of Weather Underground - 2.75 mb

La estación de MeteoMurcia.com, publica sus datos en los siguientes proyectos:

Weather Underground PWS IMURCIAP2 Meteoclimatic www.awekas.at

W3Counter
Web Analytics